createdAt,value
2024-04-16T00:01:55.379Z,98558.50
2024-04-16T00:04:22.895Z,98557.84
2024-04-16T00:06:50.952Z,98555.34
2024-04-16T00:09:17.750Z,98542.53
2024-04-16T00:11:44.514Z,98533.41
2024-04-16T00:14:11.098Z,98542.88
2024-04-16T00:16:37.915Z,98534.22
2024-04-16T00:19:04.723Z,98541.53
2024-04-16T00:21:31.425Z,98551.38
2024-04-16T00:23:58.200Z,98549.91
2024-04-16T00:26:24.852Z,98560.56
2024-04-16T00:28:51.517Z,98551.06
2024-04-16T00:31:18.155Z,98540.59
2024-04-16T00:33:45.051Z,98538.06
2024-04-16T00:36:11.655Z,98534.94
2024-04-16T00:38:38.273Z,98526.94
2024-04-16T00:41:04.896Z,98532.44
2024-04-16T00:43:31.549Z,98519.28
2024-04-16T00:46:02.428Z,98524.94
2024-04-16T00:48:29.786Z,98528.63
2024-04-16T00:50:58.548Z,98515.47
2024-04-16T00:53:26.866Z,98507.66
2024-04-16T00:55:53.667Z,98500.81
2024-04-16T00:58:21.418Z,98507.97
2024-04-16T01:00:48.307Z,98498.66
2024-04-16T01:03:15.458Z,98496.19
2024-04-16T01:05:42.875Z,98492.69
2024-04-16T01:08:10.462Z,98492.88
2024-04-16T01:10:41.688Z,98490.34
2024-04-16T01:13:09.213Z,98484.34
2024-04-16T01:15:36.243Z,98482.84
2024-04-16T01:18:04.716Z,98483.03
2024-04-16T01:20:31.808Z,98478.69
2024-04-16T01:22:58.447Z,98469.22
2024-04-16T01:25:25.164Z,98496.00
2024-04-16T01:27:51.836Z,98486.34
2024-04-16T01:30:18.680Z,98480.19
2024-04-16T01:32:45.362Z,98478.69
2024-04-16T01:35:13.269Z,98470.88
2024-04-16T01:37:40.277Z,98472.72
2024-04-16T01:40:07.475Z,98454.41
2024-04-16T01:42:34.135Z,98457.91
2024-04-16T01:45:01.018Z,98448.59
2024-04-16T01:47:28.576Z,98436.63
2024-04-16T01:49:55.314Z,98444.44
2024-04-16T01:52:21.982Z,98455.25
2024-04-16T01:54:48.569Z,98454.44
2024-04-16T01:57:15.200Z,98454.78
2024-04-16T01:59:41.886Z,98445.13
2024-04-16T02:02:09.127Z,98438.13
2024-04-16T02:04:35.889Z,98444.47
2024-04-16T02:07:02.645Z,98440.16
2024-04-16T02:09:29.317Z,98440.31
2024-04-16T02:11:55.931Z,98433.66
2024-04-16T02:14:22.617Z,98441.50
2024-04-16T02:16:49.284Z,98445.13
2024-04-16T02:19:15.959Z,98431.16
2024-04-16T02:21:42.592Z,98432.19
2024-04-16T02:24:09.213Z,98441.13
2024-04-16T02:26:35.816Z,98440.50
2024-04-16T02:29:02.453Z,98431.81
2024-04-16T02:31:31.636Z,98420.34
2024-04-16T02:33:58.834Z,98430.16
2024-04-16T02:36:25.530Z,98427.69
2024-04-16T02:38:52.176Z,98438.47
2024-04-16T02:41:18.868Z,98428.84
2024-04-16T02:43:45.935Z,98435.19
2024-04-16T02:46:12.726Z,98421.19
2024-04-16T02:48:39.402Z,98419.53
2024-04-16T02:51:06.001Z,98415.41
2024-04-16T02:53:32.644Z,98427.84
2024-04-16T02:55:59.243Z,98431.50
2024-04-16T02:58:25.856Z,98437.00
2024-04-16T03:00:52.524Z,98433.69
2024-04-16T03:03:19.279Z,98441.84
2024-04-16T03:05:45.993Z,98436.69
2024-04-16T03:08:12.583Z,98440.50
2024-04-16T03:10:40.601Z,98448.50
2024-04-16T03:13:07.348Z,98440.84
2024-04-16T03:15:34.003Z,98454.13
2024-04-16T03:18:00.798Z,98441.00
2024-04-16T03:20:27.578Z,98458.81
2024-04-16T03:22:54.253Z,98442.00
2024-04-16T03:25:21.043Z,98457.97
2024-04-16T03:27:48.549Z,98459.31
2024-04-16T03:30:15.183Z,98459.31
2024-04-16T03:32:41.988Z,98454.31
2024-04-16T03:35:12.059Z,98447.34
2024-04-16T03:37:38.835Z,98457.16
2024-04-16T03:40:09.016Z,98469.75
2024-04-16T03:42:35.667Z,98467.28
2024-04-16T03:45:02.320Z,98472.09
2024-04-16T03:47:30.228Z,98470.44
2024-04-16T03:49:56.870Z,98474.06
2024-04-16T03:52:23.556Z,98481.22
2024-04-16T03:54:50.171Z,98472.41
2024-04-16T03:57:16.792Z,98472.75
2024-04-16T04:00:01.971Z,98474.56
2024-04-16T04:02:29.190Z,98481.72
2024-04-16T04:04:55.965Z,98476.72
2024-04-16T04:07:22.652Z,98483.03
2024-04-16T04:09:50.153Z,98491.19
2024-04-16T04:12:16.825Z,98482.38
2024-04-16T04:14:44.338Z,98471.91
2024-04-16T04:17:11.340Z,98475.38
2024-04-16T04:19:38.418Z,98478.22
2024-04-16T04:22:05.279Z,98477.38
2024-04-16T04:24:34.839Z,98461.75
2024-04-16T04:27:02.609Z,98465.72
2024-04-16T04:29:31.134Z,98471.72
2024-04-16T04:31:59.693Z,98472.75
2024-04-16T04:34:27.135Z,98480.03
2024-04-16T04:36:53.854Z,98477.38
2024-04-16T04:39:21.172Z,98478.66
2024-04-16T04:41:47.820Z,98485.63
2024-04-16T04:44:14.477Z,98484.28
2024-04-16T04:46:41.153Z,98480.66
2024-04-16T04:49:07.910Z,98473.84
2024-04-16T04:51:34.615Z,98486.28
2024-04-16T04:54:01.576Z,98480.28
2024-04-16T04:56:29.550Z,98484.97
2024-04-16T04:58:56.247Z,98495.91
2024-04-16T05:01:23.015Z,98496.91
2024-04-16T05:03:49.748Z,98501.41
2024-04-16T05:06:16.400Z,98498.03
2024-04-16T05:08:42.986Z,98503.53
2024-04-16T05:11:09.815Z,98505.19
2024-04-16T05:13:36.578Z,98511.69
2024-04-16T05:16:03.506Z,98502.03
2024-04-16T05:18:30.254Z,98507.50
2024-04-16T05:20:59.577Z,98512.81
2024-04-16T05:23:27.585Z,98510.34
2024-04-16T05:25:55.968Z,98513.13
2024-04-16T05:28:22.999Z,98504.50
2024-04-16T05:30:49.704Z,98508.13
2024-04-16T05:33:16.396Z,98510.97
2024-04-16T05:35:43.009Z,98514.63
2024-04-16T05:38:09.632Z,98512.13
2024-04-16T05:40:36.300Z,98514.94
2024-04-16T05:43:03.036Z,98517.75
2024-04-16T05:45:30.008Z,98524.06
2024-04-16T05:47:56.940Z,98511.09
2024-04-16T05:50:23.589Z,98512.25
2024-04-16T05:52:50.408Z,98514.06
2024-04-16T05:55:17.133Z,98524.88
2024-04-16T05:57:43.756Z,98528.34
2024-04-16T06:00:10.776Z,98522.34
2024-04-16T06:02:37.393Z,98521.69
2024-04-16T06:05:04.379Z,98532.63
2024-04-16T06:07:31.067Z,98526.31
2024-04-16T06:09:57.670Z,98523.00
2024-04-16T06:12:24.353Z,98527.47
2024-04-16T06:14:50.963Z,98523.16
2024-04-16T06:17:17.599Z,98527.78
2024-04-16T06:19:46.694Z,98527.13
2024-04-16T06:22:13.551Z,98528.09
2024-04-16T06:24:40.231Z,98536.22
2024-04-16T06:27:06.892Z,98523.94
2024-04-16T06:29:33.612Z,98532.88
2024-04-16T06:32:00.341Z,98518.94
2024-04-16T06:34:27.059Z,98509.31
2024-04-16T06:36:53.727Z,98507.81
2024-04-16T06:39:20.392Z,98497.19
2024-04-16T06:41:46.970Z,98498.31
2024-04-16T06:44:13.695Z,98489.69
2024-04-16T06:46:40.433Z,98495.16
2024-04-16T06:49:13.653Z,98497.00
2024-04-16T06:51:44.922Z,98492.66
2024-04-16T06:54:11.559Z,98498.97
2024-04-16T06:56:38.234Z,98501.78
2024-04-16T06:59:04.812Z,98501.09
2024-04-16T07:01:31.489Z,98507.22
2024-04-16T07:04:00.829Z,98507.22
2024-04-16T07:06:28.089Z,98494.28
2024-04-16T07:08:54.706Z,98491.78
2024-04-16T07:11:21.397Z,98487.28
2024-04-16T07:13:48.200Z,98481.16
2024-04-16T07:16:14.902Z,98489.28
2024-04-16T07:18:41.615Z,98499.22
2024-04-16T07:21:08.320Z,98485.94
2024-04-16T07:23:35.301Z,98485.41
2024-04-16T07:26:03.911Z,98480.28
2024-04-16T07:28:32.920Z,98481.28
2024-04-16T07:31:06.149Z,98487.72
2024-04-16T07:33:37.418Z,98469.97
2024-04-16T07:36:10.583Z,98456.03
2024-04-16T07:38:38.368Z,98445.41
2024-04-16T07:41:05.190Z,98468.78
2024-04-16T07:43:31.953Z,98457.03
2024-04-16T07:45:58.635Z,98442.22
2024-04-16T07:48:25.287Z,98442.41
2024-04-16T07:50:52.050Z,98435.41
2024-04-16T07:53:18.830Z,98450.50
2024-04-16T07:55:45.631Z,98430.25
2024-04-16T07:58:12.325Z,98434.75
2024-04-16T08:00:40.836Z,98447.19
2024-04-16T08:03:09.104Z,98440.06
2024-04-16T08:05:37.524Z,98446.66
2024-04-16T08:08:05.494Z,98443.84
2024-04-16T08:10:33.238Z,98435.03
2024-04-16T08:12:59.888Z,98435.34
2024-04-16T08:15:26.527Z,98430.03
2024-04-16T08:17:53.163Z,98431.22
2024-04-16T08:20:19.778Z,98439.16
2024-04-16T08:22:46.364Z,98437.66
2024-04-16T08:25:13.103Z,98430.69
2024-04-16T08:27:40.088Z,98437.66
2024-04-16T08:30:07.321Z,98450.09
2024-04-16T08:32:34.002Z,98450.91
2024-04-16T08:35:00.792Z,98457.22
2024-04-16T08:37:30.926Z,98456.22
2024-04-16T08:39:57.728Z,98463.53
2024-04-16T08:42:26.822Z,98463.53
2024-04-16T08:44:55.260Z,98468.97
2024-04-16T08:47:24.187Z,98466.31
2024-04-16T08:49:52.524Z,98440.22
2024-04-16T08:52:20.996Z,98440.91
2024-04-16T08:54:50.593Z,98434.91
2024-04-16T08:57:18.363Z,98424.63
2024-04-16T08:59:44.942Z,98435.91
2024-04-16T09:02:13.246Z,98434.25
2024-04-16T09:04:41.369Z,98429.94
2024-04-16T09:07:09.192Z,98425.47
2024-04-16T09:09:36.406Z,98434.38
2024-04-16T09:12:04.497Z,98428.25
2024-04-16T09:14:31.997Z,98443.50
2024-04-16T09:16:58.741Z,98430.25
2024-04-16T09:19:28.536Z,98431.91
2024-04-16T09:22:01.428Z,98444.50
2024-04-16T09:24:28.086Z,98455.13
2024-04-16T09:26:54.700Z,98453.44
2024-04-16T09:29:26.142Z,98437.50
2024-04-16T09:31:59.660Z,98424.25
2024-04-16T09:34:26.472Z,98400.38
2024-04-16T09:36:53.323Z,98404.84
2024-04-16T09:39:21.540Z,98383.09
2024-04-16T09:41:53.442Z,98393.72
2024-04-16T09:44:20.761Z,98400.00
2024-04-16T09:46:52.822Z,98398.03
2024-04-16T09:49:23.780Z,98416.63
2024-04-16T09:51:52.466Z,98410.78
2024-04-16T09:54:20.532Z,98404.47
2024-04-16T09:56:50.795Z,98413.28
2024-04-16T09:59:17.976Z,98410.63
2024-04-16T10:01:45.380Z,98439.81
2024-04-16T10:04:12.923Z,98437.97
2024-04-16T10:06:39.738Z,98429.19
2024-04-16T10:09:06.823Z,98422.22
2024-04-16T10:11:34.033Z,98442.44
2024-04-16T10:14:01.798Z,98434.50
2024-04-16T10:16:29.379Z,98454.06
2024-04-16T10:18:57.319Z,98418.56
2024-04-16T10:21:27.842Z,98411.78
2024-04-16T10:24:07.874Z,98414.44
2024-04-16T10:26:41.100Z,98405.63
2024-04-16T10:29:18.955Z,98402.97
2024-04-16T10:31:51.713Z,98416.22
2024-04-16T10:34:21.937Z,98407.44
2024-04-16T10:36:49.278Z,98405.78
2024-04-16T10:39:16.476Z,98401.47
2024-04-16T10:41:58.650Z,98421.69
2024-04-16T10:44:25.888Z,98406.78
2024-04-16T10:46:53.658Z,98400.47
2024-04-16T10:49:23.989Z,98402.31
2024-04-16T10:51:51.797Z,98395.16
2024-04-16T10:54:18.849Z,98398.81
2024-04-16T10:56:47.013Z,98396.00
2024-04-16T10:59:14.160Z,98403.97
2024-04-16T11:01:44.884Z,98404.78
2024-04-16T11:04:13.273Z,98417.22
2024-04-16T11:06:41.943Z,98413.75
2024-04-16T11:09:09.345Z,98410.25
2024-04-16T11:11:36.152Z,98431.47
2024-04-16T11:14:03.142Z,98404.94
2024-04-16T11:16:29.846Z,98404.94
2024-04-16T11:19:00.006Z,98408.59
2024-04-16T11:21:31.165Z,98411.25
2024-04-16T11:23:58.748Z,98420.03
2024-04-16T11:26:26.024Z,98424.53
2024-04-16T11:28:52.990Z,98421.16
2024-04-16T11:31:19.732Z,98419.34
2024-04-16T11:33:47.873Z,98415.88
2024-04-16T11:36:17.570Z,98416.69
2024-04-16T11:38:44.652Z,98417.03
2024-04-16T11:41:13.300Z,98415.22
2024-04-16T11:43:43.095Z,98403.59
2024-04-16T11:46:13.404Z,98409.06
2024-04-16T11:48:40.321Z,98415.34
2024-04-16T11:51:11.468Z,98398.59
2024-04-16T11:53:39.433Z,98380.19
2024-04-16T11:56:08.498Z,98394.28
2024-04-16T11:58:37.136Z,98403.06
2024-04-16T12:01:03.951Z,98388.28
2024-04-16T12:03:30.697Z,98384.69
2024-04-16T12:05:57.333Z,98367.94
2024-04-16T12:08:24.019Z,98386.63
2024-04-16T12:10:50.703Z,98360.09
2024-04-16T12:13:17.450Z,98369.88
2024-04-16T12:15:44.098Z,98346.19
2024-04-16T12:18:11.269Z,98362.09
2024-04-16T12:20:38.043Z,98363.75
2024-04-16T12:23:04.821Z,98360.28
2024-04-16T12:25:31.444Z,98363.06
2024-04-16T12:27:58.056Z,98369.22
2024-04-16T12:30:25.231Z,98366.56
2024-04-16T12:32:58.438Z,98363.06
2024-04-16T12:35:33.510Z,98345.50
2024-04-16T12:38:00.711Z,98354.63
2024-04-16T12:40:27.477Z,98341.81
2024-04-16T12:42:54.167Z,98334.31
2024-04-16T12:45:20.771Z,98332.97
2024-04-16T12:47:47.474Z,98337.75
2024-04-16T12:50:16.398Z,98318.50
2024-04-16T12:52:43.250Z,98319.81
2024-04-16T12:55:10.077Z,98342.00
2024-04-16T12:57:36.945Z,98330.88
2024-04-16T13:00:04.315Z,98339.00
2024-04-16T13:02:31.017Z,98344.44
2024-04-16T13:04:57.651Z,98333.69
2024-04-16T13:07:24.298Z,98332.00
2024-04-16T13:09:50.908Z,98333.84
2024-04-16T13:12:17.654Z,98329.34
2024-04-16T13:14:44.327Z,98330.34
2024-04-16T13:17:10.945Z,98318.91
2024-04-16T13:19:37.545Z,98321.56
2024-04-16T13:22:06.893Z,98320.75
2024-04-16T13:24:33.480Z,98312.78
2024-04-16T13:27:00.140Z,98310.97
2024-04-16T13:29:28.275Z,98310.97
2024-04-16T13:31:54.975Z,98311.13
2024-04-16T13:34:21.649Z,98303.84
2024-04-16T13:36:48.410Z,98293.94
2024-04-16T13:39:15.236Z,98291.94
2024-04-16T13:41:41.898Z,98305.06
2024-04-16T13:44:08.446Z,98290.00
2024-04-16T13:46:35.249Z,98303.91
2024-04-16T13:49:01.860Z,98306.56
2024-04-16T13:51:28.527Z,98295.94
2024-04-16T13:53:55.136Z,98303.25
2024-04-16T13:56:21.725Z,98317.03
2024-04-16T13:58:48.402Z,98312.69
2024-04-16T14:01:15.180Z,98302.09
2024-04-16T14:03:41.950Z,98308.38
2024-04-16T14:06:08.672Z,98314.81
2024-04-16T14:08:36.493Z,98318.00
2024-04-16T14:11:04.007Z,98308.53
2024-04-16T14:13:30.765Z,98294.91
2024-04-16T14:15:57.416Z,98307.03
2024-04-16T14:18:24.053Z,98291.13
2024-04-16T14:20:50.662Z,98280.97
2024-04-16T14:23:17.418Z,98273.69
2024-04-16T14:25:44.109Z,98287.34
2024-04-16T14:28:10.926Z,98288.53
2024-04-16T14:30:37.552Z,98275.56
2024-04-16T14:33:04.468Z,98275.28
2024-04-16T14:35:31.199Z,98282.91
2024-04-16T14:37:57.872Z,98284.09
2024-04-16T14:40:24.588Z,98299.41
2024-04-16T14:42:51.257Z,98295.44
2024-04-16T14:45:20.018Z,98296.94
2024-04-16T14:47:47.712Z,98277.25
2024-04-16T14:50:14.702Z,98272.47
2024-04-16T14:52:41.418Z,98263.50
2024-04-16T14:55:08.090Z,98264.84
2024-04-16T14:57:34.755Z,98261.19
2024-04-16T15:00:01.365Z,98254.75
2024-04-16T15:02:28.000Z,98247.47
2024-04-16T15:04:54.715Z,98251.75
2024-04-16T15:07:21.340Z,98247.16
2024-04-16T15:09:47.994Z,98239.19
2024-04-16T15:12:16.191Z,98248.50
2024-04-16T15:14:43.036Z,98254.44
2024-04-16T15:17:09.796Z,98279.16
2024-04-16T15:19:36.526Z,98283.31
2024-04-16T15:22:03.234Z,98291.97
2024-04-16T15:24:29.850Z,98271.56
2024-04-16T15:26:56.446Z,98261.63
2024-04-16T15:29:23.115Z,98244.69
2024-04-16T15:31:49.828Z,98245.41
2024-04-16T15:34:16.538Z,98235.63
2024-04-16T15:36:43.191Z,98230.16
2024-04-16T15:39:09.846Z,98222.03
2024-04-16T15:41:36.562Z,98221.38
2024-04-16T15:44:03.196Z,98222.69
2024-04-16T15:46:29.796Z,98217.41
2024-04-16T15:48:56.815Z,98226.88
2024-04-16T15:51:26.330Z,98224.03
2024-04-16T15:53:53.228Z,98195.03
2024-04-16T15:56:19.896Z,98196.50
2024-04-16T15:58:46.800Z,98201.81
2024-04-16T16:01:13.629Z,98199.16
2024-04-16T16:03:40.529Z,98208.44
2024-04-16T16:06:07.370Z,98210.13
2024-04-16T16:08:33.978Z,98211.78
2024-04-16T16:11:00.718Z,98199.34
2024-04-16T16:13:27.432Z,98219.59
2024-04-16T16:15:54.177Z,98223.75
2024-04-16T16:18:20.913Z,98227.22
2024-04-16T16:20:52.394Z,98244.66
2024-04-16T16:23:19.258Z,98237.66
2024-04-16T16:25:46.285Z,98241.00
2024-04-16T16:28:13.073Z,98242.97
2024-04-16T16:30:39.755Z,98248.97
2024-04-16T16:33:06.412Z,98259.41
2024-04-16T16:35:33.151Z,98253.59
2024-04-16T16:37:59.827Z,98260.25
2024-04-16T16:40:26.682Z,98261.06
2024-04-16T16:42:54.349Z,98253.97
2024-04-16T16:45:21.019Z,98265.06
2024-04-16T16:47:47.791Z,98256.28
2024-04-16T16:50:14.535Z,98255.31
2024-04-16T16:52:41.194Z,98240.34
2024-04-16T16:55:10.831Z,98228.75
2024-04-16T16:57:37.441Z,98225.59
2024-04-16T17:00:05.052Z,98227.25
2024-04-16T17:02:31.786Z,98217.16
2024-04-16T17:04:58.469Z,98213.16
2024-04-16T17:07:25.197Z,98234.41
2024-04-16T17:09:53.461Z,98233.91
2024-04-16T17:12:21.308Z,98234.75
2024-04-16T17:14:48.467Z,98239.88
2024-04-16T17:17:15.627Z,98235.06
2024-04-16T17:19:42.367Z,98240.06
2024-04-16T17:22:09.013Z,98231.78
2024-04-16T17:24:35.693Z,98236.41
2024-04-16T17:27:02.328Z,98229.13
2024-04-16T17:29:28.911Z,98242.41
2024-04-16T17:31:55.955Z,98236.09
2024-04-16T17:34:22.739Z,98235.09
2024-04-16T17:36:51.084Z,98232.75
2024-04-16T17:39:20.408Z,98233.09
2024-04-16T17:41:47.008Z,98240.72
2024-04-16T17:44:13.672Z,98256.00
2024-04-16T17:46:41.584Z,98272.47
2024-04-16T17:49:08.336Z,98284.41
2024-04-16T17:51:34.977Z,98290.56
2024-04-16T17:54:01.872Z,98298.22
2024-04-16T17:57:24.102Z,98316.44
2024-04-16T17:59:50.780Z,98320.94
2024-04-16T18:02:17.685Z,98323.44
2024-04-16T18:08:05.109Z,98306.50
2024-04-16T18:10:31.920Z,98310.31
2024-04-16T18:12:58.611Z,98306.66
2024-04-16T18:15:25.495Z,98311.81
2024-04-16T18:17:52.199Z,98316.31
2024-04-16T18:20:18.900Z,98312.47
2024-04-16T18:22:45.627Z,98319.47
2024-04-16T18:25:12.245Z,98316.81
2024-04-16T18:27:38.920Z,98324.44
2024-04-16T18:30:06.139Z,98329.75
2024-04-16T18:32:32.850Z,98336.75
2024-04-16T18:34:59.475Z,98336.75
2024-04-16T18:37:26.120Z,98343.03
2024-04-16T18:39:52.743Z,98337.06
2024-04-16T18:42:19.335Z,98330.25
2024-04-16T18:44:47.785Z,98335.41
2024-04-16T18:47:23.008Z,98335.72
2024-04-16T18:49:50.085Z,98342.69
2024-04-16T18:53:08.885Z,98330.41
2024-04-16T18:55:35.519Z,98350.69
2024-04-16T18:58:02.222Z,98354.34
2024-04-16T19:00:28.987Z,98357.81
2024-04-16T19:02:56.386Z,98359.47
2024-04-16T19:05:59.220Z,98354.66
2024-04-16T19:08:25.892Z,98353.81
2024-04-16T19:10:52.735Z,98361.78
2024-04-16T19:13:19.596Z,98384.88
2024-04-16T19:15:56.300Z,98379.88
2024-04-16T19:18:23.180Z,98384.88
2024-04-16T19:20:49.938Z,98392.03
2024-04-16T19:23:17.795Z,98392.03
2024-04-16T19:25:44.564Z,98387.53
2024-04-16T19:28:11.418Z,98385.88
2024-04-16T19:30:38.996Z,98373.56
2024-04-16T19:33:05.816Z,98378.22
2024-04-16T19:35:32.561Z,98380.06
2024-04-16T19:37:59.365Z,98379.22
2024-04-16T19:40:26.158Z,98382.03
2024-04-16T19:42:53.042Z,98375.88
2024-04-16T19:45:19.870Z,98370.41
2024-04-16T19:47:46.843Z,98376.72
2024-04-16T19:50:13.643Z,98373.41
2024-04-16T19:52:40.441Z,98378.03
2024-04-16T19:55:07.644Z,98382.69
2024-04-16T19:57:34.699Z,98382.38
2024-04-16T20:00:04.418Z,98383.84
2024-04-16T20:02:31.087Z,98384.34
2024-04-16T20:04:57.839Z,98388.81
2024-04-16T20:07:24.556Z,98389.81
2024-04-16T20:09:51.748Z,98394.97
2024-04-16T20:12:18.379Z,98398.94
2024-04-16T20:14:46.117Z,98390.13
2024-04-16T20:17:14.336Z,98393.78
2024-04-16T20:19:41.093Z,98396.47
2024-04-16T20:22:07.873Z,98395.28
2024-04-16T20:24:34.656Z,98394.47
2024-04-16T20:27:01.964Z,98393.44
2024-04-16T20:29:28.777Z,98396.28
2024-04-16T20:31:55.572Z,98383.00
2024-04-16T20:34:23.472Z,98386.16
2024-04-16T20:36:51.119Z,98398.75
2024-04-16T20:39:18.098Z,98389.47
2024-04-16T20:41:46.138Z,98384.50
2024-04-16T20:44:12.791Z,98393.59
2024-04-16T20:46:39.443Z,98395.41
2024-04-16T20:49:06.041Z,98396.78
2024-04-16T20:51:32.704Z,98389.81
2024-04-16T20:53:59.351Z,98393.78
2024-04-16T20:56:27.508Z,98395.22
2024-04-16T20:58:54.154Z,98388.25
2024-04-16T21:01:20.897Z,98393.78
2024-04-16T21:03:47.602Z,98394.75
2024-04-16T21:06:14.309Z,98383.78
2024-04-16T21:08:41.384Z,98389.91
2024-04-16T21:11:08.403Z,98398.88
2024-04-16T21:13:36.344Z,98392.75
2024-04-16T21:16:03.037Z,98395.69
2024-04-16T21:18:29.774Z,98406.31
2024-04-16T21:20:56.490Z,98408.97
2024-04-16T21:23:23.324Z,98411.81
2024-04-16T21:25:51.257Z,98420.09
2024-04-16T21:28:18.207Z,98415.09
2024-04-16T21:30:44.898Z,98431.06
2024-04-16T21:33:11.548Z,98430.91
2024-04-16T21:35:38.864Z,98431.53
2024-04-16T21:38:05.578Z,98432.53
2024-04-16T21:40:32.836Z,98435.88
2024-04-16T21:42:59.545Z,98446.13
2024-04-16T21:45:27.224Z,98447.47
2024-04-16T21:47:53.985Z,98454.78
2024-04-16T21:50:22.249Z,98461.53
2024-04-16T21:52:48.995Z,98464.69
2024-04-16T21:55:15.824Z,98466.69
2024-04-16T21:57:42.504Z,98460.69
2024-04-16T22:00:10.651Z,98462.50
2024-04-16T22:02:37.339Z,98461.69
2024-04-16T22:05:04.345Z,98463.69
2024-04-16T22:07:31.076Z,98461.16
2024-04-16T22:09:57.679Z,98459.50
2024-04-16T22:12:24.311Z,98454.38
2024-04-16T22:14:50.956Z,98455.66
2024-04-16T22:17:17.606Z,98462.63
2024-04-16T22:19:44.323Z,98457.50
2024-04-16T22:22:10.973Z,98458.47
2024-04-16T22:24:37.591Z,98455.97
2024-04-16T22:27:04.547Z,98457.94
2024-04-16T22:29:31.159Z,98460.59
2024-04-16T22:31:59.585Z,98459.94
2024-04-16T22:34:26.248Z,98462.75
2024-04-16T22:36:52.907Z,98457.44
2024-04-16T22:39:21.010Z,98454.09
2024-04-16T22:41:47.796Z,98456.75
2024-04-16T22:44:14.420Z,98453.44
2024-04-16T22:46:41.100Z,98448.25
2024-04-16T22:49:07.939Z,98447.44
2024-04-16T22:51:34.568Z,98458.06
2024-04-16T22:54:01.239Z,98437.97
2024-04-16T22:56:27.862Z,98450.41
2024-04-16T22:58:54.549Z,98446.91
2024-04-16T23:01:21.451Z,98454.19
2024-04-16T23:03:48.259Z,98456.00
2024-04-16T23:06:15.025Z,98461.44
2024-04-16T23:08:41.669Z,98462.44
2024-04-16T23:11:08.504Z,98452.13
2024-04-16T23:13:35.222Z,98458.97
2024-04-16T23:16:01.879Z,98463.75
2024-04-16T23:18:28.535Z,98458.44
2024-04-16T23:20:55.254Z,98464.72
2024-04-16T23:23:21.847Z,98463.06
2024-04-16T23:25:48.510Z,98464.88
2024-04-16T23:28:15.130Z,98465.03
2024-04-16T23:30:41.755Z,98466.84
2024-04-16T23:33:08.956Z,98471.34
2024-04-16T23:35:36.344Z,98456.72
2024-04-16T23:38:02.999Z,98470.63
2024-04-16T23:40:29.669Z,98464.66
2024-04-16T23:42:56.320Z,98467.31
2024-04-16T23:45:22.994Z,98468.31
2024-04-16T23:47:49.692Z,98471.81
2024-04-16T23:50:16.362Z,98467.50
2024-04-16T23:52:43.090Z,98456.03
2024-04-16T23:55:09.812Z,98457.00
2024-04-16T23:57:36.579Z,98457.00
